• Join FlightAware (Why Join?)
  • Login
  • US Flag 
04:10PM EDT


 

Airport Tracker/Info


-or-


 

Live Flight TrackerFlight Track Log ✈ N561EJ ✈ 25-Apr-2013 ✈ KPBI - KMOB

Flight Track Log - Related Links

Times and Time Zones

All times are in EDT time to prevent confusion due to time zone crossing. See the N561EJ flight status page for this flight to view local times or setup timezone preferences in your user account.

Time Position Orientation Groundspeed Altitude Reporting Facility
EDT Latitude Longitude Course Direction KTS MPH feet Rate Location/Type
02:24PM 26.6853 -80.0164 322° Northwest 224 258 4,100  Level Miami Center
02:25PM 26.7289 -80.0339 340° North 239 275 6,900 2,820 Climbing Miami Center
02:26PM 26.7481 -80.1111 286° West 239 275 9,800 1,500 Climbing Miami Center
02:27PM 26.7669 -80.2000 283° West 281 323 9,900 720 Climbing Miami Center
02:28PM 26.7856 -80.2914 283° West 308 354 11,300 1,680 Climbing Miami Center
02:29PM 27.0775 -80.4032 322° Northwest  Level FlightAware Approximate
02:29PM 26.8089 -80.3642 290° West 288 331 13,300  Level Miami Center
02:30PM 26.8342 -80.4511 288° West 277 319 15,700 2,220 Climbing Miami Center
02:31PM 26.8592 -80.5356 288° West 277 319 17,800 1,620 Climbing Miami Center
02:32PM 26.8756 -80.6247 282° West 287 330 19,000 600 Climbing Miami Center
02:33PM 26.9044 -80.7233 288° West 309 356 19,000 900 Level Miami Center
02:34PM 26.9825 -80.7656 334° Northwest 295 339 20,900 1,980 Climbing Miami Center
02:35PM 27.0611 -80.7914 344° North 282 325 23,000 1,020 Climbing Miami Center
02:36PM 27.1500 -80.8225 343° North 297 342 23,000  Level Miami Center
02:37PM 27.2494 -80.8586 342° North 338 389 23,000 900 Level Miami Center
02:38PM 27.3486 -80.8947 342° North 363 418 24,800 2,100 Climbing Miami Center
02:39PM 27.4375 -80.9236 344° North 358 412 27,300 2,460 Climbing Miami Center
02:40PM 27.5139 -80.9544 340° North 336 387 29,800 2,400 Climbing Miami Center
02:41PM 27.5861 -80.9806 342° North 291 335 32,200 2,100 Climbing Miami Center
02:42PM 27.6503 -81.0017 344° North 265 305 34,000 900 Climbing Miami Center
02:43PM 27.7139 -81.0436 330° Northwest 253 291 34,000 1,020 Level Miami Center
02:44PM 27.7661 -81.1042 314° West 253 291 36,100 2,040 Climbing Miami Center
02:45PM 27.8106 -81.1553 315° West 248 285 38,100 1,500 Climbing Miami Center
02:46PM 27.8553 -81.1992 319° Northwest 223 257 39,100 720 Climbing Miami Center
02:47PM 27.8994 -81.2525 313° West 218 251 39,600 420 Climbing Miami Center
02:48PM 27.9419 -81.2989 316° Northwest 227 261 40,000 180 Climbing Miami Center
02:49PM 28.0025 -81.3669 315° West 249 287 40,000  Level Miami Center
02:50PM 28.0506 -81.4278 312° West 279 321 40,000  Level Miami Center
02:51PM 28.1533 -81.5367 317° Northwest 288 331 40,000  Level Jacksonville Center
02:52PM 28.2167 -81.6089 315° West 301 346 40,000  Level Jacksonville Center
02:53PM 28.2800 -81.6833 314° West 317 365 40,000  Level Jacksonville Center
02:54PM 28.3431 -81.7533 316° Northwest 317 365 40,000  Level Jacksonville Center
02:55PM 28.4083 -81.8281 315° West 317 365 40,000  Level Jacksonville Center
02:56PM 28.4653 -81.8983 313° West 322 371 40,000  Level Jacksonville Center
02:57PM 28.5264 -81.9711 314° West 322 371 40,000  Level Jacksonville Center
02:58PM 28.6022 -82.0508 317° Northwest 322 371 40,000  Level Jacksonville Center
02:59PM 28.6653 -82.1236 315° West 322 371 40,000  Level Jacksonville Center
03:00PM 28.7283 -82.1989 314° West 322 371 40,000  Level Jacksonville Center
03:01PM 28.7933 -82.2719 315° West 322 371 40,000  Level Jacksonville Center
03:02PM 28.8542 -82.3450 314° West 322 371 40,000  Level Jacksonville Center
03:03PM 28.9086 -82.4086 314° West 314 361 40,000  Level Jacksonville Center
03:04PM 28.9717 -82.4844 314° West 319 367 40,000  Level Jacksonville Center
03:05PM 29.0344 -82.5578 314° West 319 367 40,000  Level Jacksonville Center
03:06PM 29.0992 -82.6311 315° West 319 367 40,000  Level Jacksonville Center
03:07PM 29.1619 -82.7047 314° West 319 367 40,000  Level Jacksonville Center
03:08PM 29.2247 -82.7783 314° West 319 367 40,000  Level Jacksonville Center
03:09PM 29.2875 -82.8544 313° West 319 367 40,000  Level Jacksonville Center
03:10PM 29.3500 -82.9258 315° West 319 367 40,000  Level Jacksonville Center
03:11PM 29.4147 -82.9997 315° West 319 367 40,000  Level Jacksonville Center
03:12PM 29.4731 -83.0761 311° West 319 367 40,000  Level Jacksonville Center
03:13PM 29.5500 -83.1600 317° Northwest 331 381 40,000  Level Jacksonville Center
03:14PM 29.6106 -83.2319 314° West 326 375 40,000  Level Jacksonville Center
03:16PM 29.7331 -83.3828 313° West 321 369 40,000  Level Jacksonville Center
03:17PM 29.7956 -83.4575 314° West 321 369 40,000  Level Jacksonville Center
03:18PM 29.8600 -83.5319 315° West 321 369 40,000  Level Jacksonville Center
03:19PM 29.9200 -83.6042 314° West 321 369 40,000  Level Jacksonville Center
03:20PM 29.9844 -83.6814 314° West 321 369 40,000  Level Jacksonville Center
03:21PM 30.0464 -83.7564 314° West 321 369 40,000  Level Jacksonville Center
03:22PM 30.1086 -83.8314 314° West 316 364 40,000  Level Jacksonville Center
03:23PM 30.1728 -83.9064 315° West 316 364 40,000  Level Jacksonville Center
03:24PM 30.2347 -83.9817 314° West 316 364 40,000  Level Jacksonville Center
03:25PM 30.2967 -84.0569 314° West 316 364 40,000  Level Jacksonville Center
03:26PM 30.3586 -84.1322 314° West 316 364 40,000  Level Jacksonville Center
03:27PM 30.4206 -84.2078 314° West 316 364 40,000  Level Jacksonville Center
03:28PM 30.4844 -84.2858 314° West 316 364 40,000  Level Jacksonville Center
03:29PM 30.5400 -84.3614 310° West 316 364 40,000  Level Jacksonville Center
03:30PM 30.5639 -84.4511 287° West 316 364 40,000 -60 Level Jacksonville Center
03:31PM 30.5689 -84.5622 273° West 316 364 39,900 -600 Descending Jacksonville Center
03:32PM 30.5736 -84.6708 273° West 321 369 38,900 -960 Descending Jacksonville Center
03:33PM 30.5783 -84.7819 273° West 341 392 38,000 -900 Descending Jacksonville Center
03:34PM 30.5869 -84.8931 275° West 348 400 37,200 -7,020 Descending Jacksonville Center
03:35PM 30.5914 -85.0042 273° West 348 400 24,000 -2,400 Descending Jacksonville Center
03:36PM 30.5981 -85.1128 274° West 348 400 32,400 2,880 Climbing Jacksonville Center
03:37PM 30.6044 -85.2217 274° West 348 400 29,800 -2,220 Descending Jacksonville Center
03:38PM 30.6211 -85.3233 281° West 356 410 28,000 -1,380 Descending Jacksonville Center
03:39PM 30.6400 -85.4300 282° West 351 404 27,100 -1,020 Descending Jacksonville Center
03:40PM 30.6567 -85.5392 280° West 351 404 26,000 -1,080 Descending Jacksonville Center
03:41PM 30.6731 -85.6508 280° West 351 404 25,000 -1,020 Descending Jacksonville Center
03:42PM 30.6914 -85.7600 281° West 351 404 24,000 -540 Descending Jacksonville Center
03:43PM 30.7058 -85.8667 279° West 351 404 24,000  Level Jacksonville Center
03:44PM 30.7239 -85.9761 281° West 346 398 24,000  Level Jacksonville Center
03:45PM 30.7381 -86.0803 279° West 346 398 24,000  Level Jacksonville Center
03:46PM 30.7542 -86.1872 280° West 341 392 24,000  Level Jacksonville Center
03:48PM 30.7678 -86.3042 278° West  Level FlightAware Approximate
03:51PM 30.8267 -86.6972 267° West 334 384 24,000  Level Houston Center
03:52PM 30.8200 -86.8050 266° West 333 383 24,000  Level Houston Center
03:53PM 30.8139 -86.9125 266° West 338 389 24,000  Level Houston Center
03:54PM 30.8078 -87.0219 266° West 336 387 24,000  Level Houston Center
03:55PM 30.7955 -87.0266 267° West  Level FlightAware Approximate
03:55PM 30.8033 -87.1286 267° West 336 387 24,000  Level Houston Center
03:56PM 30.7912 -87.1307 267° West  Level FlightAware Approximate
03:56PM 30.7956 -87.2589 266° West 336 387 24,000  Level Houston Center
03:57PM 30.7868 -87.2347 267° West  Level FlightAware Approximate
03:57PM 30.7914 -87.3678 267° West 337 388 23,300  Level Houston Center
03:58PM 30.7844 -87.4786 266° West 342 394 20,800 -2,640 Descending Houston Center
03:59PM 30.7808 -87.5758 268° West 308 354 17,900 -2,640 Descending Houston Center
04:00PM 30.7853 -87.6775 273° West 312 359 15,400 -2,400 Descending Houston Center
04:01PM 30.7644 -87.7711 256° West 301 346 13,000 -2,820 Descending Houston Center
04:02PM 30.7283 -87.8692 247° West 271 312 9,600 -2,700 Descending Houston Center
04:04PM 30.7011 -87.9497 249° West 266 306 7,400 -2,160 Descending Houston Center
04:05PM 30.6722 -88.0272 247° West 261 300 5,100 -2,100 Descending Houston Center
04:06PM 30.6428 -88.1061 247° West 261 300 3,100 -1,020 Descending Houston Center
04:07PM 30.6306 -88.1694 257° West 232 267 3,000 -720 Descending Houston Center
04:08PM 30.6436 -88.2056 293° West 161 185 1,700 -1,260 Descending Houston Center
04:09PM 30.6747 -88.2300 326° Northwest 125 144 400 -1,260 Descending Houston Center